Aeroporto :
LOGIN :

Iscrizione | Disclaimer

   EN    FR    IT 

 










Sommario :    VFR   VFR Marginale   IFR   IFR Intensivo   IFR Molto Intensivo
Visibilità : 
Base nubi : 
>= 8 km
>= 3000ft
5 / 8 km
1000 / 3000 ft
1500m / 5 km
500 / 1000 ft
800 / 1500m
200 / 500 ft
< 800m
< 200 ft
Simboli :   Temporali  Nebbia  Neve Forte  Precipitazioni Forti  Vento > 20 kt
SIGMETs :   Varie  Temporali  Ghiacco  Turbolenza  Onda orograficha  Ceneri Vulcaniche






- Altitudine del aeroporto : 352 ft
- Codice IATA : KSD


ESOK - Karlstad

ULTIMO METAR :
  • 181720Z AUTO 22006KT 9999 -RA FEW003/// SCT010/// BKN020/// 04/04 Q1004 RESHUP REUP

METARs OBSOLETI :
  • 181650Z AUTO 22006KT 9999 FEW002/// SCT004/// BKN012/// 04/04 Q1004
  • 181620Z AUTO 22007KT 9999 OVC002/// 04/04 Q1004
  • 181550Z AUTO 20006KT 9999 FEW003/// SCT026/// OVC030/// 04/04 Q1004
  • 181520Z AUTO 20008KT 9999 FEW002/// SCT005/// BKN028/// 04/04 Q1003
  • 181450Z AUTO 20007KT 9999 SCT003/// BKN006/// OVC020/// 04/04 Q1003

Previsioni scadute.



MetMap, La meteo Aeronautica in un colpo d'occhio ! - Copyright ORBIFLY Dicembre 2007 - Disclaimer

ORBIFLY MET'MAP TEAM :

Programmazione e sviluppo : Alexandra Zaïnal
Concezione : Baudouin d'Aumeries
Aiuto per la programmazione : Marc-Olivier Méhu
Supporto tecnico e logistico : Manuel Goepfert
Aiuto per la traduzione : Arnaldo La Scala

Contatto : metmap@orbifly.com




FONTI E CREDITI :

   NOAA